ilmateenistus.ee keskkonnaagentuur.ee
EETN Tallinna lennuväli
FTEO31 EETN 252300
TAF EETN 252330Z 2600/2624 20010KT 9999 SCT012 BKN025 TEMPO 2600/2603
    BKN003 OVC007 TEMPO 2603/2606 3000 SHSNRA BR BKN004 SCT015CB TEMPO
    2606/2615 2000 SHRAGS SCT006 SCT015CB BKN030 BECMG 2609/2611 27012KT
    TEMPO 2611/2616 27017G30KT=

METAR EETN 260350Z 19009KT 9999 BKN004 01/01 Q0996 NOSIG=
Tallinna lennuväli
EEKA Kärdla lennuväli
FCEO32 EETN 260300 RRA
TAF EEKA 260400Z 2604/2610 19010KT 9999 SCT012 BKN025 TEMPO 2604/2610
    3000 SHRASN BKN005 SCT015CB BECMG 2605/2607 27015G25KT=

METAR EEKA 260350Z 14003KT 9999 SCT013 02/01 Q0994=
Kärdla lennuväli
EEKE Kuressaare lennuväli
METAR EEKE 260350Z AUTO 22013KT 190V270 9999NDV -RA FEW012 BKN015 BKN018 04/02 Q0996=
Kuressaare lennuväli
EEPU Pärnu lennuväli
METAR EEPU 260350Z NIL=
Pärnu lennuväli
EETU Tartu lennuväli
METAR EETU 260350Z AUTO 21012KT 9999 OVC018/// 02/01 Q0999=
Tartu lennuväli
EEEI Ämari lennuväli
METAR EEEI 260350Z 15008KT 9999 BKN005 BKN015 02/01 Q0995 R24/190095=
Ämari lennuväli